sensor_id;sensor_type;location;lat;lon;timestamp;P1;durP1;ratioP1;P2;durP2;ratioP2
4055;SDS011;2043;52.184;8.690;2022-11-15T00:00:55;12.57;;;8.80;;
4055;SDS011;2043;52.184;8.690;2022-11-15T00:03:23;15.07;;;9.30;;
4055;SDS011;2043;52.184;8.690;2022-11-15T00:05:51;16.63;;;8.93;;
4055;SDS011;2043;52.184;8.690;2022-11-15T00:08:19;14.43;;;8.83;;
4055;SDS011;2043;52.184;8.690;2022-11-15T00:10:59;14.30;;;8.80;;
4055;SDS011;2043;52.184;8.690;2022-11-15T00:13:27;12.50;;;8.50;;
4055;SDS011;2043;52.184;8.690;2022-11-15T00:15:58;12.83;;;8.47;;
4055;SDS011;2043;52.184;8.690;2022-11-15T00:18:25;13.70;;;7.90;;
4055;SDS011;2043;52.184;8.690;2022-11-15T00:20:53;16.53;;;10.20;;
4055;SDS011;2043;52.184;8.690;2022-11-15T00:23:20;15.57;;;9.60;;
4055;SDS011;2043;52.184;8.690;2022-11-15T00:25:46;18.30;;;9.70;;
4055;SDS011;2043;52.184;8.690;2022-11-15T00:28:13;20.30;;;9.40;;
4055;SDS011;2043;52.184;8.690;2022-11-15T00:30:40;19.33;;;9.20;;
4055;SDS011;2043;52.184;8.690;2022-11-15T00:33:08;17.17;;;9.13;;
4055;SDS011;2043;52.184;8.690;2022-11-15T00:35:36;14.80;;;8.53;;
4055;SDS011;2043;52.184;8.690;2022-11-15T00:38:11;22.03;;;10.87;;
4055;SDS011;2043;52.184;8.690;2022-11-15T00:40:38;17.53;;;9.23;;
4055;SDS011;2043;52.184;8.690;2022-11-15T00:43:05;21.00;;;8.90;;
4055;SDS011;2043;52.184;8.690;2022-11-15T00:45:32;18.70;;;9.07;;
4055;SDS011;2043;52.184;8.690;2022-11-15T00:47:58;23.13;;;8.93;;
4055;SDS011;2043;52.184;8.690;2022-11-15T00:50:25;16.50;;;9.77;;
4055;SDS011;2043;52.184;8.690;2022-11-15T00:52:52;20.23;;;9.13;;
4055;SDS011;2043;52.184;8.690;2022-11-15T00:55:19;13.87;;;8.53;;
4055;SDS011;2043;52.184;8.690;2022-11-15T00:57:46;14.87;;;8.70;;
4055;SDS011;2043;52.184;8.690;2022-11-15T01:00:13;14.53;;;8.50;;
4055;SDS011;2043;52.184;8.690;2022-11-15T01:02:40;15.00;;;8.63;;
4055;SDS011;2043;52.184;8.690;2022-11-15T01:05:07;14.10;;;8.37;;
4055;SDS011;2043;52.184;8.690;2022-11-15T01:07:34;15.50;;;8.40;;
4055;SDS011;2043;52.184;8.690;2022-11-15T01:10:02;15.17;;;8.33;;
4055;SDS011;2043;52.184;8.690;2022-11-15T01:12:29;13.13;;;8.17;;
4055;SDS011;2043;52.184;8.690;2022-11-15T01:14:56;12.17;;;7.60;;
4055;SDS011;2043;52.184;8.690;2022-11-15T01:17:23;15.20;;;7.43;;
4055;SDS011;2043;52.184;8.690;2022-11-15T01:19:50;23.67;;;8.73;;
4055;SDS011;2043;52.184;8.690;2022-11-15T01:22:17;14.10;;;7.20;;
4055;SDS011;2043;52.184;8.690;2022-11-15T01:24:44;13.20;;;7.90;;
4055;SDS011;2043;52.184;8.690;2022-11-15T01:27:11;11.20;;;7.40;;
4055;SDS011;2043;52.184;8.690;2022-11-15T01:29:38;20.20;;;8.77;;
4055;SDS011;2043;52.184;8.690;2022-11-15T01:32:04;12.87;;;7.63;;
4055;SDS011;2043;52.184;8.690;2022-11-15T01:34:31;10.83;;;7.73;;
4055;SDS011;2043;52.184;8.690;2022-11-15T01:36:58;12.67;;;7.50;;
4055;SDS011;2043;52.184;8.690;2022-11-15T01:39:25;11.50;;;6.90;;
4055;SDS011;2043;52.184;8.690;2022-11-15T01:41:52;16.77;;;8.30;;
4055;SDS011;2043;52.184;8.690;2022-11-15T01:49:54;13.10;;;8.53;;
4055;SDS011;2043;52.184;8.690;2022-11-15T01:52:27;14.10;;;7.70;;
4055;SDS011;2043;52.184;8.690;2022-11-15T01:55:07;14.03;;;7.60;;
4055;SDS011;2043;52.184;8.690;2022-11-15T01:57:41;12.60;;;7.70;;
4055;SDS011;2043;52.184;8.690;2022-11-15T02:00:11;12.20;;;7.40;;
4055;SDS011;2043;52.184;8.690;2022-11-15T02:02:39;14.80;;;8.20;;
4055;SDS011;2043;52.184;8.690;2022-11-15T02:05:06;11.13;;;7.57;;
4055;SDS011;2043;52.184;8.690;2022-11-15T02:07:34;14.10;;;8.07;;
4055;SDS011;2043;52.184;8.690;2022-11-15T02:10:04;11.40;;;7.07;;
4055;SDS011;2043;52.184;8.690;2022-11-15T02:12:37;13.83;;;7.63;;
4055;SDS011;2043;52.184;8.690;2022-11-15T02:15:04;11.20;;;7.70;;
4055;SDS011;2043;52.184;8.690;2022-11-15T02:29:11;12.90;;;6.97;;
4055;SDS011;2043;52.184;8.690;2022-11-15T02:39:28;13.50;;;8.30;;
4055;SDS011;2043;52.184;8.690;2022-11-15T02:42:19;13.07;;;7.37;;
4055;SDS011;2043;52.184;8.690;2022-11-15T02:45:09;15.20;;;8.20;;
4055;SDS011;2043;52.184;8.690;2022-11-15T02:47:42;12.90;;;7.50;;
4055;SDS011;2043;52.184;8.690;2022-11-15T02:50:12;13.67;;;8.33;;
4055;SDS011;2043;52.184;8.690;2022-11-15T02:52:47;14.73;;;8.20;;
4055;SDS011;2043;52.184;8.690;2022-11-15T03:01:35;12.40;;;8.27;;
4055;SDS011;2043;52.184;8.690;2022-11-15T03:05:04;19.80;;;9.17;;
4055;SDS011;2043;52.184;8.690;2022-11-15T03:07:01;20.27;;;9.83;;
4055;SDS011;2043;52.184;8.690;2022-11-15T03:09:35;17.80;;;10.07;;
4055;SDS011;2043;52.184;8.690;2022-11-15T03:12:36;15.97;;;9.00;;
4055;SDS011;2043;52.184;8.690;2022-11-15T03:15:17;17.27;;;10.23;;
4055;SDS011;2043;52.184;8.690;2022-11-15T03:18:03;19.20;;;10.07;;
4055;SDS011;2043;52.184;8.690;2022-11-15T03:20:36;19.13;;;11.40;;
4055;SDS011;2043;52.184;8.690;2022-11-15T03:23:04;18.67;;;10.57;;
4055;SDS011;2043;52.184;8.690;2022-11-15T03:25:34;14.97;;;9.80;;
4055;SDS011;2043;52.184;8.690;2022-11-15T03:28:06;24.33;;;11.13;;
4055;SDS011;2043;52.184;8.690;2022-11-15T03:30:37;15.80;;;10.20;;
4055;SDS011;2043;52.184;8.690;2022-11-15T03:33:06;14.77;;;10.83;;
4055;SDS011;2043;52.184;8.690;2022-11-15T03:35:35;17.97;;;11.50;;
4055;SDS011;2043;52.184;8.690;2022-11-15T03:43:32;23.70;;;12.70;;
4055;SDS011;2043;52.184;8.690;2022-11-15T03:46:04;24.67;;;11.93;;
4055;SDS011;2043;52.184;8.690;2022-11-15T03:48:59;21.20;;;13.30;;
4055;SDS011;2043;52.184;8.690;2022-11-15T03:51:34;24.80;;;12.50;;
4055;SDS011;2043;52.184;8.690;2022-11-15T03:54:04;24.40;;;12.30;;
4055;SDS011;2043;52.184;8.690;2022-11-15T03:56:32;22.27;;;13.60;;
4055;SDS011;2043;52.184;8.690;2022-11-15T03:58:59;26.20;;;13.60;;
4055;SDS011;2043;52.184;8.690;2022-11-15T04:01:26;26.93;;;13.23;;
4055;SDS011;2043;52.184;8.690;2022-11-15T04:03:53;22.40;;;13.23;;
4055;SDS011;2043;52.184;8.690;2022-11-15T04:06:20;21.37;;;13.63;;
4055;SDS011;2043;52.184;8.690;2022-11-15T04:08:47;22.23;;;13.13;;
4055;SDS011;2043;52.184;8.690;2022-11-15T04:11:13;22.77;;;13.60;;
4055;SDS011;2043;52.184;8.690;2022-11-15T04:13:40;24.03;;;13.60;;
4055;SDS011;2043;52.184;8.690;2022-11-15T04:16:07;20.20;;;12.60;;
4055;SDS011;2043;52.184;8.690;2022-11-15T04:18:33;17.93;;;11.53;;
4055;SDS011;2043;52.184;8.690;2022-11-15T04:21:00;19.50;;;12.63;;
4055;SDS011;2043;52.184;8.690;2022-11-15T04:23:45;22.50;;;12.77;;
4055;SDS011;2043;52.184;8.690;2022-11-15T04:26:31;19.30;;;12.07;;
4055;SDS011;2043;52.184;8.690;2022-11-15T04:28:58;21.97;;;11.60;;
4055;SDS011;2043;52.184;8.690;2022-11-15T04:31:43;26.30;;;12.20;;
4055;SDS011;2043;52.184;8.690;2022-11-15T04:34:10;21.30;;;13.07;;
4055;SDS011;2043;52.184;8.690;2022-11-15T04:36:37;29.07;;;12.77;;
4055;SDS011;2043;52.184;8.690;2022-11-15T04:39:22;25.60;;;12.83;;
4055;SDS011;2043;52.184;8.690;2022-11-15T04:41:49;24.93;;;13.80;;
4055;SDS011;2043;52.184;8.690;2022-11-15T04:44:16;22.13;;;13.67;;
4055;SDS011;2043;52.184;8.690;2022-11-15T04:46:43;21.87;;;13.60;;
4055;SDS011;2043;52.184;8.690;2022-11-15T04:49:09;25.90;;;14.67;;
4055;SDS011;2043;52.184;8.690;2022-11-15T04:51:36;26.00;;;14.03;;
4055;SDS011;2043;52.184;8.690;2022-11-15T04:54:03;24.90;;;14.00;;
4055;SDS011;2043;52.184;8.690;2022-11-15T04:56:30;25.53;;;15.07;;
4055;SDS011;2043;52.184;8.690;2022-11-15T04:58:57;23.30;;;13.73;;
4055;SDS011;2043;52.184;8.690;2022-11-15T05:01:23;28.80;;;14.13;;
4055;SDS011;2043;52.184;8.690;2022-11-15T05:03:50;23.80;;;13.47;;
4055;SDS011;2043;52.184;8.690;2022-11-15T05:06:36;20.70;;;12.40;;
4055;SDS011;2043;52.184;8.690;2022-11-15T05:09:03;20.30;;;13.30;;
4055;SDS011;2043;52.184;8.690;2022-11-15T05:11:29;21.13;;;13.07;;
4055;SDS011;2043;52.184;8.690;2022-11-15T05:13:56;22.97;;;12.67;;
4055;SDS011;2043;52.184;8.690;2022-11-15T05:16:23;21.83;;;12.87;;
4055;SDS011;2043;52.184;8.690;2022-11-15T05:18:51;19.30;;;12.57;;
4055;SDS011;2043;52.184;8.690;2022-11-15T05:21:21;22.60;;;12.60;;
4055;SDS011;2043;52.184;8.690;2022-11-15T05:23:47;20.03;;;12.83;;
4055;SDS011;2043;52.184;8.690;2022-11-15T05:26:15;30.70;;;12.30;;
4055;SDS011;2043;52.184;8.690;2022-11-15T05:28:43;17.17;;;11.43;;
4055;SDS011;2043;52.184;8.690;2022-11-15T05:31:11;23.13;;;12.17;;
4055;SDS011;2043;52.184;8.690;2022-11-15T05:33:40;20.83;;;12.47;;
4055;SDS011;2043;52.184;8.690;2022-11-15T05:38:53;24.10;;;12.13;;
4055;SDS011;2043;52.184;8.690;2022-11-15T05:41:22;20.50;;;12.33;;
4055;SDS011;2043;52.184;8.690;2022-11-15T05:44:12;18.20;;;11.53;;
4055;SDS011;2043;52.184;8.690;2022-11-15T05:46:41;18.63;;;11.23;;
4055;SDS011;2043;52.184;8.690;2022-11-15T05:49:09;20.33;;;11.63;;
4055;SDS011;2043;52.184;8.690;2022-11-15T05:51:40;22.67;;;13.10;;
4055;SDS011;2043;52.184;8.690;2022-11-15T05:54:10;19.50;;;11.23;;
4055;SDS011;2043;52.184;8.690;2022-11-15T05:56:37;20.67;;;11.83;;
4055;SDS011;2043;52.184;8.690;2022-11-15T05:59:05;21.63;;;13.20;;
4055;SDS011;2043;52.184;8.690;2022-11-15T06:01:33;22.50;;;13.30;;
4055;SDS011;2043;52.184;8.690;2022-11-15T06:04:00;22.33;;;12.63;;
4055;SDS011;2043;52.184;8.690;2022-11-15T06:06:27;18.87;;;12.10;;
4055;SDS011;2043;52.184;8.690;2022-11-15T06:08:54;17.90;;;11.97;;
4055;SDS011;2043;52.184;8.690;2022-11-15T06:11:21;21.20;;;12.80;;
4055;SDS011;2043;52.184;8.690;2022-11-15T06:13:48;18.63;;;11.97;;
4055;SDS011;2043;52.184;8.690;2022-11-15T06:16:15;21.53;;;12.83;;
4055;SDS011;2043;52.184;8.690;2022-11-15T06:18:42;18.87;;;11.30;;
4055;SDS011;2043;52.184;8.690;2022-11-15T06:21:09;21.30;;;11.73;;
4055;SDS011;2043;52.184;8.690;2022-11-15T06:23:35;22.80;;;11.90;;
4055;SDS011;2043;52.184;8.690;2022-11-15T06:26:02;18.43;;;11.97;;
4055;SDS011;2043;52.184;8.690;2022-11-15T06:28:30;20.83;;;13.73;;
4055;SDS011;2043;52.184;8.690;2022-11-15T06:31:04;16.70;;;11.03;;
4055;SDS011;2043;52.184;8.690;2022-11-15T06:33:32;26.77;;;11.63;;
4055;SDS011;2043;52.184;8.690;2022-11-15T06:36:00;21.00;;;11.20;;
4055;SDS011;2043;52.184;8.690;2022-11-15T06:38:31;15.13;;;11.10;;
4055;SDS011;2043;52.184;8.690;2022-11-15T06:41:05;18.20;;;10.97;;
4055;SDS011;2043;52.184;8.690;2022-11-15T06:43:34;20.83;;;11.37;;
4055;SDS011;2043;52.184;8.690;2022-11-15T06:46:02;15.73;;;11.00;;
4055;SDS011;2043;52.184;8.690;2022-11-15T06:48:31;19.60;;;10.93;;
4055;SDS011;2043;52.184;8.690;2022-11-15T06:50:59;16.23;;;9.80;;
4055;SDS011;2043;52.184;8.690;2022-11-15T06:53:27;13.73;;;9.43;;
4055;SDS011;2043;52.184;8.690;2022-11-15T06:56:02;16.00;;;9.60;;
4055;SDS011;2043;52.184;8.690;2022-11-15T06:58:30;14.70;;;9.30;;
4055;SDS011;2043;52.184;8.690;2022-11-15T07:00:58;15.33;;;9.57;;
4055;SDS011;2043;52.184;8.690;2022-11-15T07:03:29;15.57;;;10.07;;
4055;SDS011;2043;52.184;8.690;2022-11-15T07:05:57;15.67;;;10.10;;
4055;SDS011;2043;52.184;8.690;2022-11-15T07:08:32;14.93;;;9.50;;
4055;SDS011;2043;52.184;8.690;2022-11-15T07:11:03;15.00;;;9.57;;
4055;SDS011;2043;52.184;8.690;2022-11-15T07:13:31;12.73;;;9.03;;
4055;SDS011;2043;52.184;8.690;2022-11-15T07:16:03;13.80;;;9.97;;
4055;SDS011;2043;52.184;8.690;2022-11-15T07:18:33;12.53;;;9.00;;
4055;SDS011;2043;52.184;8.690;2022-11-15T07:21:02;13.73;;;9.10;;
4055;SDS011;2043;52.184;8.690;2022-11-15T07:23:32;13.20;;;8.67;;
4055;SDS011;2043;52.184;8.690;2022-11-15T07:26:01;13.03;;;8.87;;
4055;SDS011;2043;52.184;8.690;2022-11-15T07:28:28;14.00;;;9.20;;
4055;SDS011;2043;52.184;8.690;2022-11-15T07:30:55;13.80;;;8.47;;
4055;SDS011;2043;52.184;8.690;2022-11-15T07:33:22;12.70;;;8.17;;
4055;SDS011;2043;52.184;8.690;2022-11-15T07:35:49;13.03;;;8.80;;
4055;SDS011;2043;52.184;8.690;2022-11-15T07:38:16;13.07;;;8.27;;
4055;SDS011;2043;52.184;8.690;2022-11-15T07:40:46;12.50;;;8.53;;
4055;SDS011;2043;52.184;8.690;2022-11-15T07:43:13;11.80;;;8.27;;
4055;SDS011;2043;52.184;8.690;2022-11-15T07:45:43;13.70;;;7.60;;
4055;SDS011;2043;52.184;8.690;2022-11-15T07:48:11;18.20;;;8.60;;
4055;SDS011;2043;52.184;8.690;2022-11-15T07:50:41;12.30;;;7.00;;
4055;SDS011;2043;52.184;8.690;2022-11-15T07:53:09;12.33;;;7.20;;
4055;SDS011;2043;52.184;8.690;2022-11-15T07:55:36;12.73;;;7.67;;
4055;SDS011;2043;52.184;8.690;2022-11-15T07:58:07;13.30;;;6.60;;
4055;SDS011;2043;52.184;8.690;2022-11-15T08:00:38;11.47;;;6.80;;
4055;SDS011;2043;52.184;8.690;2022-11-15T08:03:06;13.10;;;7.57;;
4055;SDS011;2043;52.184;8.690;2022-11-15T08:05:34;9.83;;;6.73;;
4055;SDS011;2043;52.184;8.690;2022-11-15T08:08:02;14.07;;;7.60;;
4055;SDS011;2043;52.184;8.690;2022-11-15T08:10:29;11.83;;;7.13;;
4055;SDS011;2043;52.184;8.690;2022-11-15T08:13:03;14.83;;;7.30;;
4055;SDS011;2043;52.184;8.690;2022-11-15T08:15:33;9.23;;;7.17;;
4055;SDS011;2043;52.184;8.690;2022-11-15T08:18:02;9.17;;;6.50;;
4055;SDS011;2043;52.184;8.690;2022-11-15T08:20:30;8.80;;;5.70;;
4055;SDS011;2043;52.184;8.690;2022-11-15T08:22:58;12.07;;;7.00;;
4055;SDS011;2043;52.184;8.690;2022-11-15T08:25:26;10.07;;;6.07;;
4055;SDS011;2043;52.184;8.690;2022-11-15T08:27:58;9.67;;;6.17;;
4055;SDS011;2043;52.184;8.690;2022-11-15T08:30:27;9.30;;;6.23;;
4055;SDS011;2043;52.184;8.690;2022-11-15T08:32:55;8.07;;;5.40;;
4055;SDS011;2043;52.184;8.690;2022-11-15T08:35:23;13.67;;;6.67;;
4055;SDS011;2043;52.184;8.690;2022-11-15T08:37:54;10.60;;;5.87;;
4055;SDS011;2043;52.184;8.690;2022-11-15T08:40:21;7.90;;;5.33;;
4055;SDS011;2043;52.184;8.690;2022-11-15T08:42:48;8.03;;;4.90;;
4055;SDS011;2043;52.184;8.690;2022-11-15T08:45:15;10.63;;;5.50;;
4055;SDS011;2043;52.184;8.690;2022-11-15T08:47:42;9.20;;;5.30;;
4055;SDS011;2043;52.184;8.690;2022-11-15T08:50:09;8.90;;;5.90;;
4055;SDS011;2043;52.184;8.690;2022-11-15T08:52:36;8.10;;;5.30;;
4055;SDS011;2043;52.184;8.690;2022-11-15T08:55:02;8.00;;;5.50;;
4055;SDS011;2043;52.184;8.690;2022-11-15T08:57:29;10.17;;;5.43;;
4055;SDS011;2043;52.184;8.690;2022-11-15T08:59:56;8.03;;;5.20;;
4055;SDS011;2043;52.184;8.690;2022-11-15T09:02:23;8.13;;;5.30;;
4055;SDS011;2043;52.184;8.690;2022-11-15T09:04:50;6.80;;;4.53;;
4055;SDS011;2043;52.184;8.690;2022-11-15T09:07:17;6.97;;;4.90;;
4055;SDS011;2043;52.184;8.690;2022-11-15T09:09:44;9.37;;;4.50;;
4055;SDS011;2043;52.184;8.690;2022-11-15T09:12:11;7.60;;;5.00;;
4055;SDS011;2043;52.184;8.690;2022-11-15T09:14:37;8.63;;;4.83;;
4055;SDS011;2043;52.184;8.690;2022-11-15T09:17:07;7.47;;;4.60;;
4055;SDS011;2043;52.184;8.690;2022-11-15T09:19:34;6.90;;;4.47;;
4055;SDS011;2043;52.184;8.690;2022-11-15T09:22:05;7.27;;;4.43;;
4055;SDS011;2043;52.184;8.690;2022-11-15T09:24:33;8.27;;;4.33;;
4055;SDS011;2043;52.184;8.690;2022-11-15T09:27:00;7.10;;;4.00;;
4055;SDS011;2043;52.184;8.690;2022-11-15T09:29:27;7.50;;;4.30;;
4055;SDS011;2043;52.184;8.690;2022-11-15T09:31:53;5.67;;;3.70;;
4055;SDS011;2043;52.184;8.690;2022-11-15T09:34:20;6.57;;;3.90;;
4055;SDS011;2043;52.184;8.690;2022-11-15T09:36:47;6.90;;;4.00;;
4055;SDS011;2043;52.184;8.690;2022-11-15T09:39:14;7.17;;;3.87;;
4055;SDS011;2043;52.184;8.690;2022-11-15T09:50:38;7.83;;;3.30;;
4055;SDS011;2043;52.184;8.690;2022-11-15T09:53:25;6.50;;;3.37;;
4055;SDS011;2043;52.184;8.690;2022-11-15T09:56:22;4.60;;;2.97;;
4055;SDS011;2043;52.184;8.690;2022-11-15T10:01:48;6.17;;;3.10;;
4055;SDS011;2043;52.184;8.690;2022-11-15T10:04:34;5.33;;;3.20;;
4055;SDS011;2043;52.184;8.690;2022-11-15T10:07:10;5.17;;;2.90;;
4055;SDS011;2043;52.184;8.690;2022-11-15T10:09:47;3.90;;;2.53;;
4055;SDS011;2043;52.184;8.690;2022-11-15T10:12:23;6.20;;;2.70;;
4055;SDS011;2043;52.184;8.690;2022-11-15T10:14:55;4.90;;;2.80;;
4055;SDS011;2043;52.184;8.690;2022-11-15T10:17:35;5.10;;;2.63;;
4055;SDS011;2043;52.184;8.690;2022-11-15T10:30:45;4.53;;;2.80;;
4055;SDS011;2043;52.184;8.690;2022-11-15T10:33:18;4.93;;;2.63;;
4055;SDS011;2043;52.184;8.690;2022-11-15T10:44:01;4.67;;;2.37;;
4055;SDS011;2043;52.184;8.690;2022-11-15T10:46:35;4.57;;;2.80;;
4055;SDS011;2043;52.184;8.690;2022-11-15T10:49:14;5.00;;;2.50;;
4055;SDS011;2043;52.184;8.690;2022-11-15T10:52:28;6.77;;;2.30;;
4055;SDS011;2043;52.184;8.690;2022-11-15T10:54:49;4.03;;;2.30;;
4055;SDS011;2043;52.184;8.690;2022-11-15T10:57:21;5.07;;;2.20;;
4055;SDS011;2043;52.184;8.690;2022-11-15T10:59:53;6.90;;;2.30;;
4055;SDS011;2043;52.184;8.690;2022-11-15T11:04:57;5.13;;;2.43;;
4055;SDS011;2043;52.184;8.690;2022-11-15T11:07:31;4.13;;;2.10;;
4055;SDS011;2043;52.184;8.690;2022-11-15T11:10:04;3.53;;;2.00;;
4055;SDS011;2043;52.184;8.690;2022-11-15T11:13:13;4.40;;;1.80;;
4055;SDS011;2043;52.184;8.690;2022-11-15T11:15:57;4.40;;;2.00;;
4055;SDS011;2043;52.184;8.690;2022-11-15T11:18:48;7.50;;;1.90;;
4055;SDS011;2043;52.184;8.690;2022-11-15T11:21:33;4.67;;;2.10;;
4055;SDS011;2043;52.184;8.690;2022-11-15T11:37:59;4.50;;;1.90;;
4055;SDS011;2043;52.184;8.690;2022-11-15T11:40:50;3.37;;;1.90;;
4055;SDS011;2043;52.184;8.690;2022-11-15T11:48:58;7.00;;;2.70;;
4055;SDS011;2043;52.184;8.690;2022-11-15T11:54:17;5.40;;;2.60;;
4055;SDS011;2043;52.184;8.690;2022-11-15T11:57:09;7.67;;;3.03;;
4055;SDS011;2043;52.184;8.690;2022-11-15T11:59:57;4.50;;;2.30;;
4055;SDS011;2043;52.184;8.690;2022-11-15T12:05:01;8.30;;;3.00;;
4055;SDS011;2043;52.184;8.690;2022-11-15T12:08:01;5.43;;;3.00;;
4055;SDS011;2043;52.184;8.690;2022-11-15T12:10:37;6.50;;;3.00;;
4055;SDS011;2043;52.184;8.690;2022-11-15T12:13:13;5.37;;;2.47;;
4055;SDS011;2043;52.184;8.690;2022-11-15T12:16:32;4.03;;;2.50;;
4055;SDS011;2043;52.184;8.690;2022-11-15T12:18:35;3.27;;;2.13;;
4055;SDS011;2043;52.184;8.690;2022-11-15T12:21:08;5.23;;;2.53;;
4055;SDS011;2043;52.184;8.690;2022-11-15T12:23:44;4.13;;;2.40;;
4055;SDS011;2043;52.184;8.690;2022-11-15T12:26:17;7.10;;;2.93;;
4055;SDS011;2043;52.184;8.690;2022-11-15T12:31:40;4.17;;;2.37;;
4055;SDS011;2043;52.184;8.690;2022-11-15T12:34:29;4.40;;;2.77;;
4055;SDS011;2043;52.184;8.690;2022-11-15T12:37:02;5.43;;;2.37;;
4055;SDS011;2043;52.184;8.690;2022-11-15T12:45:36;6.57;;;2.57;;
4055;SDS011;2043;52.184;8.690;2022-11-15T12:58:42;5.93;;;2.33;;
4055;SDS011;2043;52.184;8.690;2022-11-15T13:10:07;4.70;;;2.90;;
4055;SDS011;2043;52.184;8.690;2022-11-15T13:22:49;5.20;;;3.30;;
4055;SDS011;2043;52.184;8.690;2022-11-15T13:27:57;4.73;;;2.57;;
4055;SDS011;2043;52.184;8.690;2022-11-15T13:30:31;12.80;;;3.50;;
4055;SDS011;2043;52.184;8.690;2022-11-15T13:32:59;7.60;;;3.10;;
4055;SDS011;2043;52.184;8.690;2022-11-15T13:35:36;7.80;;;3.77;;
4055;SDS011;2043;52.184;8.690;2022-11-15T13:38:06;5.10;;;3.30;;
4055;SDS011;2043;52.184;8.690;2022-11-15T13:40:43;6.70;;;3.67;;
4055;SDS011;2043;52.184;8.690;2022-11-15T13:48:39;7.43;;;3.60;;
4055;SDS011;2043;52.184;8.690;2022-11-15T13:51:30;6.00;;;3.57;;
4055;SDS011;2043;52.184;8.690;2022-11-15T13:54:27;6.87;;;3.80;;
4055;SDS011;2043;52.184;8.690;2022-11-15T13:57:12;4.83;;;3.43;;
4055;SDS011;2043;52.184;8.690;2022-11-15T13:59:46;6.77;;;3.90;;
4055;SDS011;2043;52.184;8.690;2022-11-15T14:02:31;8.10;;;3.47;;
4055;SDS011;2043;52.184;8.690;2022-11-15T14:07:38;5.70;;;3.63;;
4055;SDS011;2043;52.184;8.690;2022-11-15T14:10:28;6.70;;;3.13;;
4055;SDS011;2043;52.184;8.690;2022-11-15T14:12:56;10.97;;;3.90;;
4055;SDS011;2043;52.184;8.690;2022-11-15T14:15:31;4.70;;;3.23;;
4055;SDS011;2043;52.184;8.690;2022-11-15T14:18:00;6.30;;;3.77;;
4055;SDS011;2043;52.184;8.690;2022-11-15T14:20:32;7.03;;;3.20;;
4055;SDS011;2043;52.184;8.690;2022-11-15T14:23:02;4.77;;;3.20;;
4055;SDS011;2043;52.184;8.690;2022-11-15T14:25:31;5.33;;;3.13;;
4055;SDS011;2043;52.184;8.690;2022-11-15T14:28:09;6.93;;;3.40;;
4055;SDS011;2043;52.184;8.690;2022-11-15T14:30:48;4.53;;;3.30;;
4055;SDS011;2043;52.184;8.690;2022-11-15T14:33:25;5.20;;;3.20;;
4055;SDS011;2043;52.184;8.690;2022-11-15T14:35:55;6.10;;;3.57;;
4055;SDS011;2043;52.184;8.690;2022-11-15T14:38:26;5.40;;;3.50;;
4055;SDS011;2043;52.184;8.690;2022-11-15T14:40:53;6.60;;;3.47;;
4055;SDS011;2043;52.184;8.690;2022-11-15T14:43:21;6.07;;;3.97;;
4055;SDS011;2043;52.184;8.690;2022-11-15T14:45:48;5.90;;;3.83;;
4055;SDS011;2043;52.184;8.690;2022-11-15T14:48:15;7.87;;;4.03;;
4055;SDS011;2043;52.184;8.690;2022-11-15T14:50:42;8.60;;;4.80;;
4055;SDS011;2043;52.184;8.690;2022-11-15T14:53:11;11.23;;;5.03;;
4055;SDS011;2043;52.184;8.690;2022-11-15T14:55:39;9.17;;;4.50;;
4055;SDS011;2043;52.184;8.690;2022-11-15T14:58:06;6.20;;;4.27;;
4055;SDS011;2043;52.184;8.690;2022-11-15T15:00:37;6.50;;;3.63;;
4055;SDS011;2043;52.184;8.690;2022-11-15T15:03:05;9.17;;;4.73;;
4055;SDS011;2043;52.184;8.690;2022-11-15T15:08:01;6.90;;;3.60;;
4055;SDS011;2043;52.184;8.690;2022-11-15T15:10:30;7.37;;;3.70;;
4055;SDS011;2043;52.184;8.690;2022-11-15T15:13:20;9.40;;;3.87;;
4055;SDS011;2043;52.184;8.690;2022-11-15T15:15:49;7.33;;;3.63;;
4055;SDS011;2043;52.184;8.690;2022-11-15T15:18:17;6.80;;;3.60;;
4055;SDS011;2043;52.184;8.690;2022-11-15T15:20:47;9.63;;;3.47;;
4055;SDS011;2043;52.184;8.690;2022-11-15T15:23:20;5.63;;;3.47;;
4055;SDS011;2043;52.184;8.690;2022-11-15T15:25:47;6.83;;;3.00;;
4055;SDS011;2043;52.184;8.690;2022-11-15T15:28:15;6.10;;;3.50;;
4055;SDS011;2043;52.184;8.690;2022-11-15T15:30:42;7.60;;;3.53;;
4055;SDS011;2043;52.184;8.690;2022-11-15T15:33:09;9.43;;;3.67;;
4055;SDS011;2043;52.184;8.690;2022-11-15T15:35:36;7.27;;;3.77;;
4055;SDS011;2043;52.184;8.690;2022-11-15T15:38:03;7.80;;;3.20;;
4055;SDS011;2043;52.184;8.690;2022-11-15T15:40:31;10.27;;;4.10;;
4055;SDS011;2043;52.184;8.690;2022-11-15T15:42:58;5.90;;;3.40;;
4055;SDS011;2043;52.184;8.690;2022-11-15T15:45:26;9.13;;;4.33;;
4055;SDS011;2043;52.184;8.690;2022-11-15T15:47:53;7.10;;;3.83;;
4055;SDS011;2043;52.184;8.690;2022-11-15T15:52:48;8.23;;;4.00;;
4055;SDS011;2043;52.184;8.690;2022-11-15T15:55:16;6.23;;;4.40;;
4055;SDS011;2043;52.184;8.690;2022-11-15T15:57:43;6.93;;;4.07;;
4055;SDS011;2043;52.184;8.690;2022-11-15T16:00:10;9.17;;;4.60;;
4055;SDS011;2043;52.184;8.690;2022-11-15T16:02:37;13.73;;;4.67;;
4055;SDS011;2043;52.184;8.690;2022-11-15T16:05:06;7.77;;;3.17;;
4055;SDS011;2043;52.184;8.690;2022-11-15T16:07:34;9.53;;;3.53;;
4055;SDS011;2043;52.184;8.690;2022-11-15T16:10:02;6.40;;;3.50;;
4055;SDS011;2043;52.184;8.690;2022-11-15T16:12:51;9.10;;;3.20;;
4055;SDS011;2043;52.184;8.690;2022-11-15T16:15:19;10.43;;;3.40;;
4055;SDS011;2043;52.184;8.690;2022-11-15T16:17:48;6.93;;;2.93;;
4055;SDS011;2043;52.184;8.690;2022-11-15T16:20:22;6.70;;;3.10;;
4055;SDS011;2043;52.184;8.690;2022-11-15T16:22:55;5.40;;;2.70;;
4055;SDS011;2043;52.184;8.690;2022-11-15T16:25:22;5.50;;;3.13;;
4055;SDS011;2043;52.184;8.690;2022-11-15T16:27:49;9.80;;;2.90;;
4055;SDS011;2043;52.184;8.690;2022-11-15T16:30:19;4.60;;;2.70;;
4055;SDS011;2043;52.184;8.690;2022-11-15T16:32:47;6.87;;;3.33;;
4055;SDS011;2043;52.184;8.690;2022-11-15T16:35:14;6.90;;;3.07;;
4055;SDS011;2043;52.184;8.690;2022-11-15T16:37:42;5.47;;;2.80;;
4055;SDS011;2043;52.184;8.690;2022-11-15T16:40:21;6.73;;;3.60;;
4055;SDS011;2043;52.184;8.690;2022-11-15T16:43:07;5.37;;;2.87;;
4055;SDS011;2043;52.184;8.690;2022-11-15T16:45:34;7.63;;;3.07;;
4055;SDS011;2043;52.184;8.690;2022-11-15T16:48:01;7.30;;;3.30;;
4055;SDS011;2043;52.184;8.690;2022-11-15T16:50:29;5.23;;;3.10;;
4055;SDS011;2043;52.184;8.690;2022-11-15T16:53:00;6.40;;;3.37;;
4055;SDS011;2043;52.184;8.690;2022-11-15T16:55:28;6.00;;;3.10;;
4055;SDS011;2043;52.184;8.690;2022-11-15T16:57:55;6.17;;;3.67;;
4055;SDS011;2043;52.184;8.690;2022-11-15T17:00:27;6.00;;;3.50;;
4055;SDS011;2043;52.184;8.690;2022-11-15T17:02:54;6.33;;;3.17;;
4055;SDS011;2043;52.184;8.690;2022-11-15T17:05:21;7.50;;;3.17;;
4055;SDS011;2043;52.184;8.690;2022-11-15T17:07:49;5.30;;;3.63;;
4055;SDS011;2043;52.184;8.690;2022-11-15T17:10:20;6.60;;;3.40;;
4055;SDS011;2043;52.184;8.690;2022-11-15T17:12:48;8.00;;;3.67;;
4055;SDS011;2043;52.184;8.690;2022-11-15T17:15:16;10.10;;;4.03;;
4055;SDS011;2043;52.184;8.690;2022-11-15T17:17:43;5.77;;;3.23;;
4055;SDS011;2043;52.184;8.690;2022-11-15T17:20:16;4.80;;;3.23;;
4055;SDS011;2043;52.184;8.690;2022-11-15T17:22:44;7.23;;;3.53;;
4055;SDS011;2043;52.184;8.690;2022-11-15T17:25:12;5.23;;;3.20;;
4055;SDS011;2043;52.184;8.690;2022-11-15T17:27:39;5.43;;;3.20;;
4055;SDS011;2043;52.184;8.690;2022-11-15T17:30:07;6.80;;;4.70;;
4055;SDS011;2043;52.184;8.690;2022-11-15T17:32:35;8.20;;;4.50;;
4055;SDS011;2043;52.184;8.690;2022-11-15T17:35:03;9.13;;;4.77;;
4055;SDS011;2043;52.184;8.690;2022-11-15T17:37:38;8.53;;;5.20;;
4055;SDS011;2043;52.184;8.690;2022-11-15T17:40:05;6.40;;;3.57;;
4055;SDS011;2043;52.184;8.690;2022-11-15T17:42:33;5.80;;;3.70;;
4055;SDS011;2043;52.184;8.690;2022-11-15T17:44:59;5.80;;;3.10;;
4055;SDS011;2043;52.184;8.690;2022-11-15T17:47:34;6.43;;;3.73;;
4055;SDS011;2043;52.184;8.690;2022-11-15T17:50:01;7.33;;;4.07;;
4055;SDS011;2043;52.184;8.690;2022-11-15T17:52:28;7.37;;;3.77;;
4055;SDS011;2043;52.184;8.690;2022-11-15T17:54:55;6.00;;;3.67;;
4055;SDS011;2043;52.184;8.690;2022-11-15T17:57:22;7.03;;;3.73;;
4055;SDS011;2043;52.184;8.690;2022-11-15T17:59:49;5.33;;;3.60;;